createdAt,value
2022-10-05T00:00:00.363Z,12.00
2022-10-05T00:01:36.228Z,12.00
2022-10-05T00:03:11.727Z,12.00
2022-10-05T00:04:43.623Z,11.90
2022-10-05T00:06:16.635Z,11.80
2022-10-05T00:07:48.645Z,11.80
2022-10-05T00:09:22.816Z,11.80
2022-10-05T00:10:54.625Z,11.70
2022-10-05T00:12:29.628Z,11.70
2022-10-05T00:14:04.193Z,11.70
2022-10-05T00:15:38.390Z,11.70
2022-10-05T00:17:16.980Z,11.70
2022-10-05T00:18:51.519Z,11.70
2022-10-05T00:20:26.365Z,11.70
2022-10-05T00:22:01.028Z,11.70
2022-10-05T00:23:33.922Z,11.70
2022-10-05T00:25:15.790Z,11.70
2022-10-05T00:26:54.028Z,11.60
2022-10-05T00:28:31.700Z,11.60
2022-10-05T00:30:14.367Z,11.60
2022-10-05T00:31:48.947Z,11.60
2022-10-05T00:33:21.693Z,11.50
2022-10-05T00:34:53.489Z,11.60
2022-10-05T00:36:27.009Z,11.60
2022-10-05T00:37:59.764Z,11.60
2022-10-05T00:39:32.078Z,11.60
2022-10-05T00:41:09.143Z,11.60
2022-10-05T00:42:48.169Z,11.70
2022-10-05T00:44:35.822Z,11.70
2022-10-05T00:46:14.565Z,11.70
2022-10-05T00:47:58.929Z,11.70
2022-10-05T00:49:51.321Z,11.70
2022-10-05T00:51:27.926Z,11.70
2022-10-05T00:53:07.079Z,11.70
2022-10-05T00:54:45.557Z,11.60
2022-10-05T00:56:32.077Z,11.60
2022-10-05T00:58:16.528Z,11.60
2022-10-05T00:59:59.007Z,11.60
2022-10-05T01:01:37.712Z,11.60
2022-10-05T01:03:16.533Z,11.60
2022-10-05T01:04:52.887Z,11.60
2022-10-05T01:06:32.209Z,11.60
2022-10-05T01:08:19.765Z,11.60
2022-10-05T01:10:02.031Z,11.60
2022-10-05T01:11:42.373Z,11.60
2022-10-05T01:13:25.408Z,11.50
2022-10-05T01:15:06.346Z,11.50
2022-10-05T01:16:49.609Z,11.40
2022-10-05T01:18:32.792Z,11.40
2022-10-05T01:20:31.777Z,11.40
2022-10-05T01:22:14.543Z,11.40
2022-10-05T01:24:08.811Z,11.40
2022-10-05T01:25:51.972Z,11.40
2022-10-05T01:27:52.038Z,11.40
2022-10-05T01:29:26.526Z,11.40
2022-10-05T01:31:07.935Z,11.40
2022-10-05T01:32:44.489Z,11.40
2022-10-05T01:34:28.793Z,11.40
2022-10-05T01:36:06.911Z,11.40
2022-10-05T01:37:48.162Z,11.40
2022-10-05T01:39:30.797Z,11.40
2022-10-05T01:41:14.070Z,11.40
2022-10-05T01:43:00.943Z,11.40
2022-10-05T01:44:42.106Z,11.40
2022-10-05T01:46:24.487Z,11.40
2022-10-05T01:48:04.205Z,11.40
2022-10-05T01:49:39.237Z,11.40
2022-10-05T01:51:20.369Z,11.40
2022-10-05T01:53:01.942Z,11.50
2022-10-05T01:54:45.268Z,11.40
2022-10-05T01:56:25.636Z,11.40
2022-10-05T01:58:08.374Z,11.40
2022-10-05T01:59:54.294Z,11.30
2022-10-05T02:01:32.223Z,11.30
2022-10-05T02:03:12.506Z,11.30
2022-10-05T02:05:01.855Z,11.20
2022-10-05T02:06:41.445Z,11.20
2022-10-05T02:08:18.660Z,11.10
2022-10-05T02:09:56.328Z,11.10
2022-10-05T02:11:29.205Z,11.10
2022-10-05T02:13:10.884Z,11.10
2022-10-05T02:14:45.452Z,11.10
2022-10-05T02:16:21.676Z,11.10
2022-10-05T02:17:58.600Z,11.10
2022-10-05T02:19:35.706Z,11.00
2022-10-05T02:21:09.618Z,11.00
2022-10-05T02:22:47.313Z,11.00
2022-10-05T02:24:24.573Z,11.00
2022-10-05T02:25:59.120Z,11.00
2022-10-05T02:27:37.052Z,11.10
2022-10-05T02:29:14.290Z,11.00
2022-10-05T02:30:53.670Z,11.00
2022-10-05T02:32:30.288Z,10.90
2022-10-05T02:34:26.792Z,10.80
2022-10-05T02:36:02.948Z,10.80
2022-10-05T02:37:44.389Z,10.80
2022-10-05T02:39:23.192Z,10.80
2022-10-05T02:41:03.684Z,10.80
2022-10-05T02:42:48.459Z,10.80
2022-10-05T02:44:30.021Z,10.90
2022-10-05T02:46:14.529Z,10.90
2022-10-05T02:47:58.731Z,10.80
2022-10-05T02:49:40.324Z,10.90
2022-10-05T02:51:21.127Z,10.90
2022-10-05T02:53:05.318Z,10.80
2022-10-05T02:54:48.154Z,10.70
2022-10-05T02:56:29.693Z,10.70
2022-10-05T02:58:08.826Z,10.70
2022-10-05T02:59:47.806Z,10.60
2022-10-05T03:01:25.477Z,10.50
2022-10-05T03:03:05.817Z,10.40
2022-10-05T03:04:43.132Z,10.30
2022-10-05T03:06:20.634Z,10.20
2022-10-05T03:07:59.928Z,10.20
2022-10-05T03:09:42.286Z,10.20
2022-10-05T03:11:25.057Z,10.10
2022-10-05T03:13:04.918Z,10.00
2022-10-05T03:14:49.161Z,9.90
2022-10-05T03:16:39.232Z,9.80
2022-10-05T03:18:27.369Z,9.70
2022-10-05T03:20:17.424Z,9.70
2022-10-05T03:21:58.528Z,9.70
2022-10-05T03:23:40.320Z,9.80
2022-10-05T03:25:36.083Z,9.70
2022-10-05T03:27:23.116Z,9.80
2022-10-05T03:29:04.194Z,9.70
2022-10-05T03:30:42.986Z,9.70
2022-10-05T03:32:26.520Z,9.60
2022-10-05T03:34:05.688Z,9.60
2022-10-05T03:35:49.969Z,9.50
2022-10-05T03:37:28.959Z,9.40
2022-10-05T03:39:11.425Z,9.40
2022-10-05T03:40:51.442Z,9.40
2022-10-05T03:42:35.509Z,9.40
2022-10-05T03:44:37.233Z,9.40
2022-10-05T03:46:15.669Z,9.40
2022-10-05T03:47:59.004Z,9.30
2022-10-05T03:49:48.273Z,9.40
2022-10-05T03:51:26.291Z,9.30
2022-10-05T03:53:03.760Z,9.40
2022-10-05T03:54:39.909Z,9.40
2022-10-05T03:56:17.354Z,9.40
2022-10-05T03:57:52.757Z,9.30
2022-10-05T03:59:32.574Z,9.40
2022-10-05T04:01:11.138Z,9.30
2022-10-05T04:02:51.680Z,9.20
2022-10-05T04:04:28.937Z,9.20
2022-10-05T04:06:08.231Z,9.10
2022-10-05T04:07:46.747Z,9.20
2022-10-05T04:09:25.989Z,9.10
2022-10-05T04:11:02.926Z,9.10
2022-10-05T04:12:40.649Z,9.10
2022-10-05T04:14:19.017Z,9.20
2022-10-05T04:15:58.618Z,9.20
2022-10-05T04:17:35.542Z,9.20
2022-10-05T04:19:15.949Z,9.20
2022-10-05T04:20:53.201Z,9.30
2022-10-05T04:22:31.083Z,9.30
2022-10-05T04:24:09.816Z,9.30
2022-10-05T04:25:46.167Z,9.30
2022-10-05T04:27:22.608Z,9.40
2022-10-05T04:28:59.948Z,9.30
2022-10-05T04:30:38.785Z,9.40
2022-10-05T04:32:31.115Z,9.40
2022-10-05T04:34:10.822Z,9.50
2022-10-05T04:36:13.834Z,9.50
2022-10-05T04:37:52.731Z,9.50
2022-10-05T04:39:35.774Z,9.50
2022-10-05T04:41:22.686Z,9.60
2022-10-05T04:43:03.914Z,9.60
2022-10-05T04:44:45.853Z,9.70
2022-10-05T04:46:29.158Z,9.70
2022-10-05T04:48:31.217Z,9.70
2022-10-05T04:50:18.502Z,9.80
2022-10-05T04:52:00.354Z,9.80
2022-10-05T04:53:36.672Z,9.90
2022-10-05T04:55:18.048Z,9.90
2022-10-05T04:56:54.600Z,10.00
2022-10-05T04:58:42.508Z,10.00
2022-10-05T05:00:24.269Z,10.00
2022-10-05T05:02:06.667Z,10.00
2022-10-05T05:03:50.098Z,10.10
2022-10-05T05:05:53.135Z,10.10
2022-10-05T05:07:42.276Z,10.10
2022-10-05T05:09:38.294Z,10.10
2022-10-05T05:11:22.412Z,10.10
2022-10-05T05:13:10.556Z,10.20
2022-10-05T05:14:55.787Z,10.20
2022-10-05T05:16:34.800Z,10.20
2022-10-05T05:18:42.664Z,10.30
2022-10-05T05:20:21.838Z,10.30
2022-10-05T05:22:02.134Z,10.30
2022-10-05T05:23:41.908Z,10.30
2022-10-05T05:25:30.082Z,10.30
2022-10-05T05:27:19.005Z,10.40
2022-10-05T05:29:02.964Z,10.40
2022-10-05T05:30:47.011Z,10.40
2022-10-05T05:32:35.429Z,10.40
2022-10-05T05:34:24.161Z,10.50
2022-10-05T05:36:22.292Z,10.40
2022-10-05T05:38:06.502Z,10.50
2022-10-05T05:39:47.952Z,10.50
2022-10-05T05:41:29.036Z,10.50
2022-10-05T05:43:04.320Z,10.50
2022-10-05T05:44:44.349Z,10.50
2022-10-05T05:46:38.800Z,10.50
2022-10-05T05:48:19.418Z,10.60
2022-10-05T05:50:17.477Z,10.60
2022-10-05T05:51:56.880Z,10.60
2022-10-05T05:53:34.873Z,10.60
2022-10-05T05:55:16.629Z,10.70
2022-10-05T05:56:54.328Z,10.70
2022-10-05T05:58:33.445Z,10.70
2022-10-05T06:00:08.009Z,10.70
2022-10-05T06:01:45.093Z,10.70
2022-10-05T06:03:22.529Z,10.80
2022-10-05T06:04:59.571Z,10.80
2022-10-05T06:06:35.033Z,10.80
2022-10-05T06:08:14.268Z,10.80
2022-10-05T06:09:50.915Z,10.80
2022-10-05T06:11:29.913Z,10.90
2022-10-05T06:13:08.733Z,10.90
2022-10-05T06:14:45.669Z,10.90
2022-10-05T06:16:24.291Z,10.90
2022-10-05T06:18:02.386Z,10.90
2022-10-05T06:19:37.814Z,10.90
2022-10-05T06:21:20.677Z,10.90
2022-10-05T06:22:54.661Z,11.00
2022-10-05T06:24:32.754Z,11.00
2022-10-05T06:26:15.749Z,11.00
2022-10-05T06:28:03.561Z,11.00
2022-10-05T06:29:46.829Z,11.00
2022-10-05T06:31:30.515Z,11.00
2022-10-05T06:33:18.655Z,11.00
2022-10-05T06:35:04.014Z,11.00
2022-10-05T06:36:44.958Z,11.00
2022-10-05T06:38:38.032Z,11.00
2022-10-05T06:40:23.102Z,11.00
2022-10-05T06:42:08.661Z,11.00
2022-10-05T06:43:52.400Z,11.00
2022-10-05T06:45:32.933Z,11.10
2022-10-05T06:47:17.912Z,11.10
2022-10-05T06:49:04.144Z,11.10
2022-10-05T06:50:39.985Z,11.10
2022-10-05T06:52:22.822Z,11.20
2022-10-05T06:54:04.542Z,11.20
2022-10-05T06:55:47.083Z,11.30
2022-10-05T06:57:49.760Z,11.30
2022-10-05T06:59:32.544Z,11.40
2022-10-05T07:01:11.983Z,11.40
2022-10-05T07:02:53.323Z,11.50
2022-10-05T07:04:43.341Z,11.60
2022-10-05T07:06:17.824Z,11.60
2022-10-05T07:07:56.147Z,11.60
2022-10-05T07:09:41.330Z,11.70
2022-10-05T07:11:26.215Z,11.80
2022-10-05T07:13:13.524Z,11.80
2022-10-05T07:14:59.383Z,11.80
2022-10-05T07:16:41.765Z,12.00
2022-10-05T07:18:36.949Z,12.20
2022-10-05T07:20:17.291Z,12.60
2022-10-05T07:22:05.272Z,12.90
2022-10-05T07:23:50.806Z,13.20
2022-10-05T07:25:29.657Z,13.50
2022-10-05T07:27:13.621Z,13.80
2022-10-05T07:28:50.864Z,14.00
2022-10-05T07:30:25.297Z,14.30
2022-10-05T07:32:08.316Z,14.50
2022-10-05T07:33:48.004Z,14.70
2022-10-05T07:35:48.473Z,15.00
2022-10-05T07:37:45.327Z,15.20
2022-10-05T07:39:42.007Z,15.50
2022-10-05T07:41:23.819Z,15.70
2022-10-05T07:43:06.559Z,16.00
2022-10-05T07:44:44.877Z,16.20
2022-10-05T07:46:25.843Z,16.50
2022-10-05T07:48:02.018Z,16.70
2022-10-05T07:49:43.412Z,16.90
2022-10-05T07:51:27.661Z,17.10
2022-10-05T07:53:05.883Z,17.20
2022-10-05T07:54:48.998Z,17.10
2022-10-05T07:56:29.380Z,17.10
2022-10-05T07:58:11.174Z,17.00
2022-10-05T07:59:49.996Z,17.00
2022-10-05T08:01:29.605Z,16.90
2022-10-05T08:03:08.895Z,16.70
2022-10-05T08:04:51.631Z,16.60
2022-10-05T08:06:39.809Z,16.40
2022-10-05T08:08:20.443Z,16.30
2022-10-05T08:09:59.350Z,16.20
2022-10-05T08:11:38.118Z,16.00
2022-10-05T08:13:17.578Z,16.00
2022-10-05T08:14:56.898Z,15.90
2022-10-05T08:16:36.204Z,15.80
2022-10-05T08:18:17.537Z,15.80
2022-10-05T08:20:01.070Z,15.80
2022-10-05T08:21:39.045Z,15.70
2022-10-05T08:23:22.292Z,15.70
2022-10-05T08:24:59.960Z,15.70
2022-10-05T08:26:42.904Z,15.70
2022-10-05T08:28:22.036Z,15.70
2022-10-05T08:29:59.587Z,15.70
2022-10-05T08:31:36.167Z,15.60
2022-10-05T08:33:14.026Z,15.70
2022-10-05T08:34:52.340Z,15.70
2022-10-05T08:36:33.932Z,15.70
2022-10-05T08:38:13.969Z,15.70
2022-10-05T08:39:53.777Z,15.80
2022-10-05T08:42:01.260Z,15.80
2022-10-05T08:44:04.946Z,15.90
2022-10-05T08:46:13.443Z,15.90
2022-10-05T08:48:21.315Z,16.00
2022-10-05T08:50:15.902Z,16.20
2022-10-05T08:52:25.576Z,16.30
2022-10-05T08:54:26.949Z,16.40
2022-10-05T08:56:40.704Z,16.60
2022-10-05T08:58:40.147Z,16.90
2022-10-05T09:00:16.428Z,17.30
2022-10-05T09:02:12.234Z,17.60
2022-10-05T09:04:06.821Z,17.90
2022-10-05T09:06:05.054Z,18.10
2022-10-05T09:07:57.924Z,18.30
2022-10-05T09:10:07.224Z,18.40
2022-10-05T09:11:46.913Z,18.40
2022-10-05T09:13:49.059Z,18.40
2022-10-05T09:15:37.972Z,18.30
2022-10-05T09:17:28.152Z,18.40
2022-10-05T09:19:28.208Z,18.60
2022-10-05T09:21:08.110Z,18.80
2022-10-05T09:23:00.055Z,19.00
2022-10-05T09:24:52.184Z,19.20
2022-10-05T09:26:45.235Z,19.50
2022-10-05T09:28:33.462Z,19.70
2022-10-05T09:30:27.833Z,20.00
2022-10-05T09:32:20.469Z,20.20
2022-10-05T09:34:31.075Z,20.30
2022-10-05T09:36:26.418Z,20.50
2022-10-05T09:38:18.597Z,20.50
2022-10-05T09:40:44.530Z,20.50
2022-10-05T09:42:41.375Z,20.40
2022-10-05T09:44:42.237Z,20.40
2022-10-05T09:46:50.089Z,20.30
2022-10-05T09:48:51.796Z,20.30
2022-10-05T09:51:10.097Z,20.20
2022-10-05T09:53:04.578Z,20.10
2022-10-05T09:55:01.641Z,20.10
2022-10-05T09:56:57.763Z,20.20
2022-10-05T09:58:56.094Z,20.30
2022-10-05T10:00:35.959Z,20.30
2022-10-05T10:02:28.489Z,20.20
2022-10-05T10:04:14.239Z,20.20
2022-10-05T10:06:14.843Z,20.10
2022-10-05T10:08:08.003Z,20.10
2022-10-05T10:10:03.032Z,20.00
2022-10-05T10:11:46.627Z,20.00
2022-10-05T10:13:46.699Z,19.90
2022-10-05T10:15:59.466Z,19.80
2022-10-05T10:17:48.270Z,19.70
2022-10-05T10:19:42.675Z,19.70
2022-10-05T10:21:37.909Z,19.60
2022-10-05T10:23:38.864Z,19.50
2022-10-05T10:25:43.641Z,19.40
2022-10-05T10:27:34.149Z,19.30
2022-10-05T10:29:40.974Z,19.20
2022-10-05T10:31:38.611Z,19.20
2022-10-05T10:33:40.742Z,19.20
2022-10-05T10:35:31.984Z,19.20
2022-10-05T10:37:41.293Z,19.20
2022-10-05T10:39:23.016Z,19.20
2022-10-05T10:41:31.796Z,19.40
2022-10-05T10:43:29.426Z,19.50
2022-10-05T10:45:20.587Z,19.60
2022-10-05T10:47:11.983Z,19.60
2022-10-05T10:48:57.325Z,19.70
2022-10-05T10:51:08.246Z,19.80
2022-10-05T10:52:56.141Z,20.00
2022-10-05T10:54:56.560Z,20.10
2022-10-05T10:57:04.940Z,20.20
2022-10-05T10:59:03.341Z,20.20
2022-10-05T11:00:44.656Z,20.10
2022-10-05T11:02:30.772Z,20.10
2022-10-05T11:04:36.538Z,20.10
2022-10-05T11:06:46.994Z,20.00
2022-10-05T11:08:47.265Z,20.00
2022-10-05T11:11:02.639Z,20.00
2022-10-05T11:13:17.552Z,20.00
2022-10-05T11:15:13.114Z,20.00
2022-10-05T11:17:10.784Z,20.00
2022-10-05T11:19:03.162Z,19.90
2022-10-05T11:21:04.799Z,19.90
2022-10-05T11:22:54.595Z,19.70
2022-10-05T11:24:50.111Z,19.60
2022-10-05T11:26:43.059Z,19.50
2022-10-05T11:28:52.677Z,19.40
2022-10-05T11:30:54.234Z,19.30
2022-10-05T11:32:50.558Z,19.20
2022-10-05T11:34:51.485Z,19.10
2022-10-05T11:37:00.873Z,19.10
2022-10-05T11:38:56.995Z,19.10
2022-10-05T11:40:58.345Z,19.10
2022-10-05T11:42:55.024Z,19.10
2022-10-05T11:44:57.561Z,19.10
2022-10-05T11:46:40.393Z,19.10
2022-10-05T11:48:49.739Z,19.10
2022-10-05T11:50:32.345Z,19.20
2022-10-05T11:52:11.817Z,19.20
2022-10-05T11:53:54.076Z,19.10
2022-10-05T11:55:32.696Z,19.20
2022-10-05T11:57:10.540Z,19.10
2022-10-05T11:58:48.005Z,19.10
2022-10-05T12:00:22.627Z,19.10
2022-10-05T12:02:04.227Z,19.10
2022-10-05T12:03:51.424Z,19.10
2022-10-05T12:05:32.352Z,19.10
2022-10-05T12:07:14.076Z,19.00
2022-10-05T12:08:58.452Z,19.10
2022-10-05T12:10:38.011Z,19.10
2022-10-05T12:12:22.052Z,19.10
2022-10-05T12:14:00.410Z,19.10
2022-10-05T12:15:40.684Z,19.10
2022-10-05T12:17:22.181Z,19.20
2022-10-05T12:19:01.045Z,19.20
2022-10-05T12:20:40.855Z,19.20
2022-10-05T12:22:18.936Z,19.20
2022-10-05T12:23:54.759Z,19.20
2022-10-05T12:25:33.225Z,19.30
2022-10-05T12:27:12.936Z,19.40
2022-10-05T12:28:50.724Z,19.40
2022-10-05T12:30:31.195Z,19.50
2022-10-05T12:32:11.456Z,19.50
2022-10-05T12:33:51.212Z,19.60
2022-10-05T12:35:47.335Z,19.70
2022-10-05T12:37:40.967Z,19.70
2022-10-05T12:39:22.217Z,19.70
2022-10-05T12:41:04.155Z,19.70
2022-10-05T12:42:43.317Z,19.80
2022-10-05T12:44:25.179Z,19.80
2022-10-05T12:46:09.839Z,19.80
2022-10-05T12:48:03.081Z,19.80
2022-10-05T12:49:57.812Z,19.80
2022-10-05T12:51:39.166Z,19.80
2022-10-05T12:53:28.680Z,19.90
2022-10-05T12:55:10.889Z,19.90
2022-10-05T12:56:49.524Z,20.10
2022-10-05T12:58:30.330Z,20.10
2022-10-05T13:00:10.698Z,20.10
2022-10-05T13:01:49.066Z,20.10
2022-10-05T13:03:26.890Z,20.10
2022-10-05T13:05:12.571Z,20.20
2022-10-05T13:06:53.725Z,20.20
2022-10-05T13:08:32.146Z,20.20
2022-10-05T13:10:22.466Z,20.30
2022-10-05T13:12:03.697Z,20.30
2022-10-05T13:13:44.320Z,20.30
2022-10-05T13:15:26.295Z,20.30
2022-10-05T13:17:06.918Z,20.20
2022-10-05T13:18:49.718Z,20.30
2022-10-05T13:20:30.558Z,20.30
2022-10-05T13:22:16.244Z,20.30
2022-10-05T13:23:57.648Z,20.30
2022-10-05T13:25:33.540Z,20.30
2022-10-05T13:27:14.065Z,20.30
2022-10-05T13:28:55.369Z,20.30
2022-10-05T13:30:30.206Z,20.30
2022-10-05T13:32:12.487Z,20.30
2022-10-05T13:34:06.699Z,20.30
2022-10-05T13:35:47.153Z,20.40
2022-10-05T13:37:31.670Z,20.30
2022-10-05T13:39:12.486Z,20.40
2022-10-05T13:40:50.573Z,20.40
2022-10-05T13:42:31.183Z,20.40
2022-10-05T13:44:16.730Z,20.40
2022-10-05T13:45:57.137Z,20.40
2022-10-05T13:47:35.616Z,20.40
2022-10-05T13:49:23.837Z,20.40
2022-10-05T13:51:06.290Z,20.40
2022-10-05T13:52:46.815Z,20.30
2022-10-05T13:54:27.027Z,20.30
2022-10-05T13:56:01.305Z,20.40
2022-10-05T13:57:47.515Z,20.40
2022-10-05T13:59:29.085Z,20.40
2022-10-05T14:01:08.595Z,20.30
2022-10-05T14:02:44.508Z,20.40
2022-10-05T14:04:20.705Z,20.40
2022-10-05T14:05:58.487Z,20.40
2022-10-05T14:07:34.853Z,20.40
2022-10-05T14:09:13.796Z,20.40
2022-10-05T14:10:48.383Z,20.30
2022-10-05T14:12:22.246Z,20.40
2022-10-05T14:14:04.881Z,20.30
2022-10-05T14:15:42.122Z,20.30
2022-10-05T14:17:32.169Z,20.30
2022-10-05T14:19:22.708Z,20.30
2022-10-05T14:21:07.401Z,20.40
2022-10-05T14:22:43.104Z,20.40
2022-10-05T14:24:42.359Z,20.40
2022-10-05T14:26:33.792Z,20.40
2022-10-05T14:28:25.682Z,20.40
2022-10-05T14:30:01.987Z,20.40
2022-10-05T14:31:36.690Z,20.40
2022-10-05T14:33:17.134Z,20.40
2022-10-05T14:35:01.080Z,20.40
2022-10-05T14:36:36.749Z,20.40
2022-10-05T14:38:20.328Z,20.50
2022-10-05T14:39:58.115Z,20.50
2022-10-05T14:41:37.475Z,20.50
2022-10-05T14:43:20.678Z,20.50
2022-10-05T14:45:01.142Z,20.50
2022-10-05T14:46:35.916Z,20.50
2022-10-05T14:48:12.325Z,20.50
2022-10-05T14:50:10.449Z,20.50
2022-10-05T14:51:43.270Z,20.50
2022-10-05T14:53:21.127Z,20.50
2022-10-05T14:55:00.838Z,20.50
2022-10-05T14:56:45.826Z,20.50
2022-10-05T14:58:37.146Z,20.50
2022-10-05T15:00:14.220Z,20.50
2022-10-05T15:01:56.275Z,20.50
2022-10-05T15:03:45.609Z,20.50
2022-10-05T15:05:24.700Z,20.50
2022-10-05T15:07:06.477Z,20.60
2022-10-05T15:08:53.253Z,20.50
2022-10-05T15:10:32.468Z,20.50
2022-10-05T15:12:05.592Z,20.50
2022-10-05T15:13:42.556Z,20.50
2022-10-05T15:15:26.912Z,20.60
2022-10-05T15:17:03.428Z,20.50
2022-10-05T15:18:45.903Z,20.50
2022-10-05T15:20:24.754Z,20.60
2022-10-05T15:22:14.081Z,20.60
2022-10-05T15:23:53.706Z,20.60
2022-10-05T15:25:35.398Z,20.60
2022-10-05T15:27:18.752Z,20.60
2022-10-05T15:28:57.476Z,20.60
2022-10-05T15:30:31.609Z,20.70
2022-10-05T15:32:15.190Z,20.70
2022-10-05T15:33:56.441Z,20.70
2022-10-05T15:35:47.948Z,20.70
2022-10-05T15:37:26.786Z,20.70
2022-10-05T15:39:08.230Z,20.80
2022-10-05T15:40:46.645Z,20.80
2022-10-05T15:42:23.491Z,20.80
2022-10-05T15:44:10.798Z,20.90
2022-10-05T15:45:52.946Z,20.90
2022-10-05T15:47:35.008Z,20.90
2022-10-05T15:49:25.248Z,21.00
2022-10-05T15:51:06.984Z,21.00
2022-10-05T15:52:47.508Z,21.00
2022-10-05T15:54:44.789Z,21.00
2022-10-05T15:56:23.079Z,21.00
2022-10-05T15:58:22.587Z,21.00
2022-10-05T16:00:01.852Z,21.00
2022-10-05T16:01:47.704Z,21.10
2022-10-05T16:03:27.600Z,21.10
2022-10-05T16:05:46.566Z,21.10
2022-10-05T16:07:42.954Z,21.10
2022-10-05T16:09:24.555Z,21.10
2022-10-05T16:10:58.374Z,21.00
2022-10-05T16:12:43.700Z,21.00
2022-10-05T16:14:36.930Z,21.00
2022-10-05T16:16:21.984Z,21.00
2022-10-05T16:18:34.714Z,20.90
2022-10-05T16:20:23.724Z,20.90
2022-10-05T16:22:04.029Z,20.80
2022-10-05T16:23:43.530Z,20.80
2022-10-05T16:25:23.165Z,20.80
2022-10-05T16:27:00.237Z,20.70
2022-10-05T16:28:44.359Z,20.70
2022-10-05T16:30:20.774Z,20.70
2022-10-05T16:32:01.125Z,20.70
2022-10-05T16:33:47.069Z,20.60
2022-10-05T16:35:31.495Z,20.60
2022-10-05T16:37:14.133Z,20.60
2022-10-05T16:38:54.884Z,20.50
2022-10-05T16:40:37.810Z,20.50
2022-10-05T16:42:22.572Z,20.50
2022-10-05T16:44:04.636Z,20.50
2022-10-05T16:45:51.573Z,20.50
2022-10-05T16:47:34.973Z,20.40
2022-10-05T16:49:22.559Z,20.40
2022-10-05T16:51:13.234Z,20.40
2022-10-05T16:52:51.660Z,20.30
2022-10-05T16:54:28.920Z,20.30
2022-10-05T16:56:04.569Z,20.30
2022-10-05T16:57:41.712Z,20.20
2022-10-05T16:59:40.617Z,20.20
2022-10-05T17:01:29.795Z,20.10
2022-10-05T17:03:22.068Z,20.10
2022-10-05T17:05:02.522Z,20.10
2022-10-05T17:06:49.926Z,20.00
2022-10-05T17:09:03.518Z,20.00
2022-10-05T17:10:58.111Z,19.90
2022-10-05T17:12:45.468Z,19.90
2022-10-05T17:14:31.018Z,19.90
2022-10-05T17:16:11.818Z,19.80
2022-10-05T17:17:58.619Z,19.80
2022-10-05T17:19:53.054Z,19.70
2022-10-05T17:21:32.346Z,19.80
2022-10-05T17:23:23.633Z,19.70
2022-10-05T17:25:04.206Z,19.70
2022-10-05T17:26:56.154Z,19.60
2022-10-05T17:28:39.259Z,19.60
2022-10-05T17:30:38.625Z,19.60
2022-10-05T17:32:33.381Z,19.50
2022-10-05T17:34:29.147Z,19.50
2022-10-05T17:36:19.538Z,19.50
2022-10-05T17:38:20.067Z,19.40
2022-10-05T17:39:55.076Z,19.40
2022-10-05T17:41:30.051Z,19.30
2022-10-05T17:43:23.910Z,19.30
2022-10-05T17:44:59.675Z,19.30
2022-10-05T17:46:39.669Z,19.30
2022-10-05T17:48:13.544Z,19.30
2022-10-05T17:50:15.628Z,19.20
2022-10-05T17:52:22.177Z,19.20
2022-10-05T17:54:14.019Z,19.20
2022-10-05T17:55:47.045Z,19.20
2022-10-05T17:57:22.598Z,19.10
2022-10-05T17:59:00.161Z,19.10
2022-10-05T18:00:44.324Z,19.10
2022-10-05T18:02:22.293Z,19.10
2022-10-05T18:03:56.122Z,19.00
2022-10-05T18:05:30.297Z,19.00
2022-10-05T18:07:05.075Z,19.00
2022-10-05T18:08:38.618Z,19.00
2022-10-05T18:10:29.175Z,19.00
2022-10-05T18:12:26.728Z,18.90
2022-10-05T18:14:18.683Z,18.90
2022-10-05T18:15:51.498Z,18.90
2022-10-05T18:17:43.762Z,18.90
2022-10-05T18:19:17.102Z,18.90
2022-10-05T18:21:15.238Z,18.80
2022-10-05T18:22:50.312Z,18.80
2022-10-05T18:24:54.961Z,18.80
2022-10-05T18:26:38.438Z,18.70
2022-10-05T18:28:21.583Z,18.70
2022-10-05T18:30:02.551Z,18.70
2022-10-05T18:31:43.654Z,18.70
2022-10-05T18:33:50.648Z,18.70
2022-10-05T18:35:28.883Z,18.70
2022-10-05T18:37:14.863Z,18.60
2022-10-05T18:39:03.934Z,18.60
2022-10-05T18:40:44.895Z,18.60
2022-10-05T18:42:27.123Z,18.60
2022-10-05T18:44:19.398Z,18.50
2022-10-05T18:46:04.567Z,18.50
2022-10-05T18:47:45.673Z,18.50
2022-10-05T18:49:35.916Z,18.50
2022-10-05T18:51:20.805Z,18.40
2022-10-05T18:53:14.233Z,18.40
2022-10-05T18:54:58.200Z,18.40
2022-10-05T18:56:36.707Z,18.40
2022-10-05T18:58:21.994Z,18.30
2022-10-05T19:00:01.821Z,18.40
2022-10-05T19:01:52.242Z,18.30
2022-10-05T19:03:30.530Z,18.30
2022-10-05T19:05:35.827Z,18.30
2022-10-05T19:07:19.870Z,18.30
2022-10-05T19:09:00.508Z,18.30
2022-10-05T19:10:43.048Z,18.20
2022-10-05T19:12:26.972Z,18.20
2022-10-05T19:14:10.215Z,18.20
2022-10-05T19:15:52.166Z,18.20
2022-10-05T19:17:27.090Z,18.20
2022-10-05T19:19:32.453Z,18.20
2022-10-05T19:21:21.395Z,18.10
2022-10-05T19:23:14.037Z,18.10
2022-10-05T19:25:00.422Z,18.10
2022-10-05T19:26:52.015Z,18.10
2022-10-05T19:28:31.341Z,18.10
2022-10-05T19:30:15.382Z,18.10
2022-10-05T19:31:52.330Z,18.00
2022-10-05T19:33:33.545Z,18.10
2022-10-05T19:35:16.167Z,18.00
2022-10-05T19:37:02.428Z,18.10
2022-10-05T19:38:45.524Z,18.00
2022-10-05T19:40:27.184Z,18.10
2022-10-05T19:42:14.467Z,18.00
2022-10-05T19:44:02.163Z,18.00
2022-10-05T19:45:41.806Z,18.00
2022-10-05T19:47:24.378Z,18.00
2022-10-05T19:48:57.249Z,18.00
2022-10-05T19:50:32.624Z,18.00
2022-10-05T19:52:13.165Z,18.00
2022-10-05T19:53:49.931Z,17.90
2022-10-05T19:55:32.185Z,17.90
2022-10-05T19:57:16.876Z,18.00
2022-10-05T19:58:51.832Z,17.90
2022-10-05T20:00:26.710Z,17.90
2022-10-05T20:02:02.350Z,17.90
2022-10-05T20:03:37.902Z,17.90
2022-10-05T20:05:15.245Z,17.90
2022-10-05T20:06:48.180Z,17.90
2022-10-05T20:08:25.239Z,17.90
2022-10-05T20:10:00.301Z,17.90
2022-10-05T20:11:34.892Z,17.90
2022-10-05T20:13:12.121Z,17.80
2022-10-05T20:15:04.903Z,17.90
2022-10-05T20:16:55.286Z,17.80
2022-10-05T20:19:07.082Z,17.80
2022-10-05T20:20:45.733Z,17.80
2022-10-05T20:22:29.439Z,17.80
2022-10-05T20:24:10.029Z,17.70
2022-10-05T20:25:42.745Z,17.70
2022-10-05T20:27:35.371Z,17.70
2022-10-05T20:29:09.821Z,17.60
2022-10-05T20:30:42.520Z,17.60
2022-10-05T20:32:17.644Z,17.60
2022-10-05T20:33:51.918Z,17.60
2022-10-05T20:35:27.626Z,17.50
2022-10-05T20:37:00.321Z,17.50
2022-10-05T20:38:40.585Z,17.50
2022-10-05T20:40:14.773Z,17.50
2022-10-05T20:41:46.929Z,17.50
2022-10-05T20:43:19.643Z,17.50
2022-10-05T20:44:56.685Z,17.40
2022-10-05T20:46:30.927Z,17.40
2022-10-05T20:48:03.864Z,17.40
2022-10-05T20:49:40.890Z,17.40
2022-10-05T20:51:12.921Z,17.40
2022-10-05T20:52:45.702Z,17.40
2022-10-05T20:54:18.977Z,17.30
2022-10-05T20:55:51.687Z,17.30
2022-10-05T20:57:24.862Z,17.30
2022-10-05T20:58:57.598Z,17.30
2022-10-05T21:00:51.261Z,17.30
2022-10-05T21:02:24.023Z,17.30
2022-10-05T21:03:56.134Z,17.30
2022-10-05T21:05:31.532Z,17.30
2022-10-05T21:07:05.369Z,17.20
2022-10-05T21:08:38.224Z,17.20
2022-10-05T21:10:11.141Z,17.20
2022-10-05T21:11:44.518Z,17.20
2022-10-05T21:13:17.538Z,17.20
2022-10-05T21:14:52.519Z,17.20
2022-10-05T21:16:24.874Z,17.20
2022-10-05T21:17:57.635Z,17.10
2022-10-05T21:19:30.596Z,17.10
2022-10-05T21:21:04.821Z,17.10
2022-10-05T21:22:37.508Z,17.10
2022-10-05T21:24:13.182Z,17.00
2022-10-05T21:25:45.897Z,17.00
2022-10-05T21:27:18.614Z,17.00
2022-10-05T21:28:51.422Z,17.00
2022-10-05T21:30:24.165Z,17.00
2022-10-05T21:31:57.342Z,17.00
2022-10-05T21:33:30.553Z,16.90
2022-10-05T21:35:03.739Z,16.90
2022-10-05T21:36:37.781Z,17.00
2022-10-05T21:38:10.532Z,16.90
2022-10-05T21:39:43.243Z,16.90
2022-10-05T21:41:16.084Z,16.90
2022-10-05T21:42:48.805Z,16.90
2022-10-05T21:44:21.510Z,16.90
2022-10-05T21:45:56.234Z,16.80
2022-10-05T21:47:29.098Z,16.90
2022-10-05T21:49:01.845Z,16.90
2022-10-05T21:50:35.875Z,16.90
2022-10-05T21:52:09.955Z,16.80
2022-10-05T21:53:46.624Z,16.80
2022-10-05T21:55:20.466Z,16.80
2022-10-05T21:56:58.193Z,16.80
2022-10-05T21:58:31.799Z,16.80
2022-10-05T22:00:05.661Z,16.80
2022-10-05T22:01:37.526Z,16.80
2022-10-05T22:03:10.252Z,16.70
2022-10-05T22:04:42.954Z,16.70
2022-10-05T22:06:15.680Z,16.80
2022-10-05T22:07:48.806Z,16.80
2022-10-05T22:09:21.522Z,16.70
2022-10-05T22:10:54.903Z,16.80
2022-10-05T22:12:28.142Z,16.70
2022-10-05T22:14:02.981Z,16.70
2022-10-05T22:15:35.735Z,16.70
2022-10-05T22:17:14.581Z,16.70